Tiempo atmosférico en la estación meteorológica de Alcazar De San Juan, Ciudad Real (664 m.)



Fecha
DESCASC
Temp. máxima en grados centígrados (hora)
DESCASC
Temp. mínima en grados centígrados (hora)
DESCASC
Temp. media en grados centígrados
DESCASC
Racha de viento máxima en m/sg (hora)
DESCASC
Velocidad máxima media en intervalos de 10 minutos(hora)
DESCASC
Precipitaciones diarias en mm
DESCASC
Precipitaciones de 00:00 a 06:00 en mm
DESCASC
Precipitaciones de 06:00 a 12:00 en mm
DESCASC
Precipitaciones de 12:00 a 18:00 en mm
DESCASC
Precipitaciones de 18:00 a 24:00 en mm
DESCASC
20-09-2018 33.1 (17:00) 18.4 (08:10) 25.7 6.67 (18:20) 2.5 (14:10) 0 0 0 0 0
19-09-2018 30.9 (17:20) 17.3 (07:40) 24.1 6.39 (18:20) 2.78 (18:20) 0 0 0 0 0
18-09-2018 30.7 (16:20) 17.1 (09:00) 23.9 5 (16:30) 2.22 (23:50) 0 0 0 0 0
17-09-2018 31.1 (17:30) 18.1 (08:10) 24.6 12.5 (18:20) 6.39 (18:20) 0 0 0 0 0
16-09-2018 31 (17:40) 16.7 (00:00) 23.9 6.67 (15:20) 2.5 (15:20) 0 0 0 0 0
15-09-2018 29.2 (16:00) 19.7 (00:00) 24.5 8.33 (17:20) 4.17 (17:20) 0 0 0 0 0
14-09-2018 31.8 (17:10) 18.4 (00:00) 25.1 6.39 (02:30) 2.22 (16:30) 0 0 0 0 0
13-09-2018 32.9 (15:30) 18.1 (00:00) 25.5 5.56 (15:30) 2.22 (16:20) 0 0 0 0 0
12-09-2018 30.3 (17:50) 18.1 (00:00) 24.2 6.67 (02:30) 2.5 (16:20) 0 0 0 0 0
11-09-2018 29.1 (17:10) 16.6 (00:00) 22.9 9.72 (14:00) 3.06 (12:20) 0 0 0 0 0
10-09-2018 27.2 (16:10) 15.7 (00:00) 21.5 8.33 (14:20) 2.78 (14:30) 0 0 0 0 0
09-09-2018 29.4 (17:10) 14.1 (00:00) 21.8 7.5 (23:20) 3.06 (21:30) 0.4 0 0 0 0.4
08-09-2018 27.3 (14:20) 17.9 (00:00) 22.6 8.89 (16:00) 4.44 (15:00) 0 0 0 0 0
07-09-2018 31 (17:40) 17.9 (00:00) 24.4 7.22 (12:40) 3.33 (19:30) 0 0 0 0 0
06-09-2018 29.5 (17:40) 16.4 (00:00) 22.9 6.39 (13:50) 2.22 (13:50) 0 0 0 0 0
05-09-2018 29.7 (17:10) 16.1 (00:00) 22.9 7.78 (15:00) 3.89 (16:40) 0 0 0 0 0
04-09-2018 31.4 (16:50) 18.9 (00:00) 25.1 7.78 (15:00) 3.61 (11:50) 0 0 0 0 0
03-09-2018 33.4 (17:20) 21.8 (00:00) 27.6 6.94 (18:10) 3.33 (17:40) 0 0 0 0 0
02-09-2018 36.7 (17:30) 20.1 (00:00) 28.4 7.5 (22:30) 3.61 (22:30) 0 0 0 0 0
01-09-2018 35.8 (17:40) 20 (00:00) 27.9 7.78 (02:40) 2.78 (02:30) 0 0 0 0 0
31-08-2018 35.1 (17:20) 20.4 (00:00) 27.7 5.56 (09:40) 1.94 (10:30) 0 0 0 0 0
30-08-2018 33.9 (15:50) 20.1 (00:00) 27 7.5 (03:00) 2.78 (10:40) 0 0 0 0 0
29-08-2018 34.6 (17:20) 20.8 (00:00) 27.7 7.78 (23:20) 2.5 (18:20) 0 0 0 0 0
28-08-2018 36.3 (16:50) 22.2 (00:00) 29.3 8.06 (16:40) 3.89 (14:00) 0 0 0 0 0
27-08-2018 37.9 (17:50) 18.9 (00:00) 28.4 6.67 (22:50) 2.78 (22:50) 0 0 0 0 0
26-08-2018 35.8 (17:00) 19.5 (00:00) 27.6 7.5 (17:40) 2.5 (18:00) 0 0 0 0 0
25-08-2018 35.8 (16:30) 18.2 (00:00) 27 8.89 (16:20) 3.61 (16:30) 0 0 0 0 0

Gráficas

Temp. máximas Temp. mínimas Temp. medias Precipitaciones Rachas de viento máximas Velocidades máximas media en intervalos de 10 minutos

Datos horarios

Fecha y hora oficial Temperatura (ºC) Velocidad del viento (km/h) Dirección del viento Racha (km/h) Dirección de racha Precipitación (mm) Presión (hPa) Tendencia (hPa) Humedad (%)
2018-09-23 23:00:00 26.5 3 Norte 9 Norte 0 -- -- 33
2018-09-23 22:00:00 28 4 Norte 10 Nordeste 0 -- -- 30
2018-09-23 21:00:00 29.1 2 Norte 6 Norte 0 -- -- 30
2018-09-23 20:00:00 31.2 3 Norte 10 Norte 0 -- -- 26
2018-09-23 19:00:00 32.6 4 Norte 14 Norte 0 -- -- 25
2018-09-23 18:00:00 33.6 5 Norte 15 Noroeste 0 -- -- 24
2018-09-23 17:00:00 34.4 4 Sudeste 19 Nordeste 0 -- -- 24
2018-09-23 16:00:00 34.2 5 Noroeste 15 Sudeste 0 -- -- 25
2018-09-23 15:00:00 33.5 5 Norte 10 Noroeste 0 -- -- 27
2018-09-23 14:00:00 32.3 4 Oeste 12 Oeste 0 -- -- 29
2018-09-23 13:00:00 30.9 3 Sur 10 Sudeste 0 -- -- 33
2018-09-23 12:00:00 28.4 3 Sur 10 Sudeste 0 -- -- 40
2018-09-23 11:00:00 25.7 3 Sudeste 12 Sudeste 0 -- -- 48
2018-09-23 10:00:00 22 6 Sudeste 13 Este 0 -- -- 62
2018-09-23 09:00:00 20 3 Este 9 Este 0 -- -- 66
2018-09-23 08:00:00 18.7 0 Calma 8 Noroeste 0 -- -- 53
2018-09-23 07:00:00 21 2 Norte 11 Este 0 -- -- 52
2018-09-23 06:00:00 21.4 3 Sudeste 9 Este 0 -- -- 46
2018-09-23 05:00:00 21.1 5 Nordeste 10 Nordeste 0 -- -- 46
2018-09-23 04:00:00 21.4 0 Calma 6 Norte 0 -- -- 46
2018-09-23 03:00:00 22.1 0 Calma 3 Nordeste 0 -- -- 46
2018-09-23 02:00:00 22.9 0 Calma 9 Sur 0 -- -- 43
2018-09-23 01:00:00 23.8 4 Sudeste 12 Sudeste 0 -- -- 39
2018-09-23 00:00:00 25.4 0 Calma 6 Nordeste 0 -- -- 36
2018-09-22 23:00:00 27 2 Nordeste 8 Nordeste 0 -- -- 34
2018-09-22 22:00:00 27.4 0 Calma 6 Nordeste 0 -- -- 33
2018-09-22 21:00:00 29.1 0 Calma 8 Nordeste 0 -- -- 31
2018-09-22 20:00:00 31.2 4 Nordeste 13 Nordeste 0 -- -- 28
2018-09-22 19:00:00 32.2 5 Norte 12 Oeste 0 -- -- 26
2018-09-22 18:00:00 33.9 5 Noroeste 15 Norte 0 -- -- 25
2018-09-22 17:00:00 32.6 4 Norte 13 Oeste 0 -- -- 27
2018-09-22 16:00:00 33.4 4 Norte 13 Sur 0 -- -- 27
2018-09-22 15:00:00 33 7 Sudeste 12 Sudeste 0 -- -- 27
2018-09-22 14:00:00 31.9 4 Nordeste 10 Nordeste 0 -- -- 30
2018-09-22 13:00:00 30.1 3 Sudoeste 9 Sudeste 0 -- -- 36
2018-09-22 12:00:00 27.7 2 Sudeste 10 Sudeste 0 -- -- 40
2018-09-22 11:00:00 24.9 4 Sudeste 9 Sur 0 -- -- 50
2018-09-22 10:00:00 21.9 3 Este 10 Este 0 -- -- 64
2018-09-22 09:00:00 18.9 0 Calma 4 Nordeste 0 -- -- 58
2018-09-22 08:00:00 18.5 0 Calma 3 Noroeste 0 -- -- 57
2018-09-22 07:00:00 19 0 Calma 4 Noroeste 0 -- -- 54
2018-09-22 06:00:00 19.5 0 Calma 3 Norte 0 -- -- 53
2018-09-22 05:00:00 20.3 2 Sudoeste 6 Sudoeste 0 -- -- 50
2018-09-22 04:00:00 21.5 0 Calma 4 Este 0 -- -- 47
2018-09-22 03:00:00 22.2 0 Calma 5 Nordeste 0 -- -- 45
2018-09-22 02:00:00 22.7 2 Sudeste 8 Oeste 0 -- -- 46
2018-09-22 01:00:00 23.7 0 Calma 4 Norte 0 -- -- 44
2018-09-22 00:00:00 24.6 0 Calma 6 Oeste 0 -- -- 41
2018-09-21 23:00:00 25.8 0 Calma 6 Norte 0 -- -- 39
2018-09-21 22:00:00 26.8 0 Calma 4 Nordeste 0 -- -- 38
2018-09-21 21:00:00 28.4 2 Noroeste 5 Noroeste 0 -- -- 34
2018-09-21 20:00:00 30.2 3 Noroeste 13 Oeste 0 -- -- 31
2018-09-21 19:00:00 31.6 2 Noroeste 12 Sur 0 -- -- 29
2018-09-21 18:00:00 33 4 Sur 14 Sur 0 -- -- 26
2018-09-21 17:00:00 32.2 2 Noroeste 10 Sudoeste 0 -- -- 27
2018-09-21 16:00:00 32.8 5 Noroeste 14 Oeste 0 -- -- 27
2018-09-21 15:00:00 31.7 5 Norte 12 Oeste 0 -- -- 29
2018-09-21 14:00:00 31.1 4 Oeste 10 Sur 0 -- -- 32
2018-09-21 13:00:00 29.6 3 Oeste 10 Oeste 0 -- -- 36
2018-09-21 12:00:00 27.4 3 Sur 9 Sur 0 -- -- 41
2018-09-21 11:00:00 24.3 4 Sudoeste 9 Oeste 0 -- -- 49
2018-09-21 10:00:00 20.7 6 Sur 10 Sudeste 0 -- -- 59
2018-09-21 09:00:00 18.6 2 Sur 7 Sudeste 0 -- -- 64
2018-09-21 08:00:00 18.4 2 Sur 5 Sur 0 -- -- 64
2018-09-21 07:00:00 18.6 0 Calma 8 Sur 0 -- -- 62
2018-09-21 06:00:00 19.3 2 Sudeste 8 Sudeste 0 -- -- 57
2018-09-21 05:00:00 19.9 2 Este 6 Sudeste 0 -- -- 54
2018-09-21 04:00:00 20.8 2 Sur 6 Sur 0 -- -- 51
2018-09-21 03:00:00 21.4 0 Calma 5 Sur 0 -- -- 49
2018-09-21 02:00:00 22.2 3 Sudeste 8 Sur 0 -- -- 48
2018-09-21 01:00:00 23 2 Este 6 Este 0 -- -- 42
2018-09-21 00:00:00 24.2 2 Este 6 Oeste 0 -- -- 38
2018-09-20 23:00:00 25.2 2 Sudeste 9 Sudoeste 0 -- -- 35
2018-09-20 22:00:00 25.9 3 Sudeste 7 Este 0 -- -- 34
2018-09-20 21:00:00 27.4 0 Calma 4 Sur 0 -- -- 31
2018-09-20 20:00:00 29.6 3 Sudoeste 12 Sur 0 -- -- 29
2018-09-20 19:00:00 30.9 5 Sur 24 Nordeste 0 -- -- 26
2018-09-20 18:00:00 32.8 3 Sur 15 Sur 0 -- -- 25
2018-09-20 17:00:00 33.1 5 Sur 17 Sudoeste 0 -- -- 25
2018-09-20 16:00:00 32.3 9 Sudoeste 18 Sudoeste 0 -- -- 28
2018-09-20 15:00:00 31.3 6 Sudeste 17 Sudeste 0 -- -- 31
2018-09-20 14:00:00 31.1 6 Sudeste 17 Sudoeste 0 -- -- 35
2018-09-20 13:00:00 29.8 6 Sur 13 Sudoeste 0 -- -- 39
2018-09-20 12:00:00 27.6 4 Sur 12 Sur 0 -- -- 48
2018-09-20 11:00:00 24.4 4 Sudeste 12 Sudeste 0 -- -- 59
2018-09-20 10:00:00 20.5 7 Sudeste 14 Este 0 -- -- 77
2018-09-20 09:00:00 18.6 4 Sudeste 16 Este 0 -- -- 85
2018-09-20 08:00:00 18.5 5 Sudeste 15 Sudeste 0 -- -- 84
2018-09-20 07:00:00 18.9 4 Sudeste 17 Sudeste 0 -- -- 82
2018-09-20 06:00:00 19.4 4 Sudeste 18 Sudeste 0 -- -- 79
2018-09-20 05:00:00 19.8 5 Sudeste 14 Sudeste 0 -- -- 76
2018-09-20 04:00:00 20.3 4 Sudeste 14 Sudeste 0 -- -- 73
2018-09-20 03:00:00 21.1 3 Sudeste 15 Sudeste 0 -- -- 68
2018-09-20 02:00:00 22.1 4 Sudeste 13 Sudeste 0 -- -- 59
2018-09-20 01:00:00 22.4 3 Sudeste 10 Sudeste 0 -- -- 51
2018-09-20 00:00:00 23 3 Sudeste 10 Este 0 -- -- 49
2018-09-19 23:00:00 24.2 3 Sudeste 8 Este 0 -- -- 46
2018-09-19 22:00:00 25.3 2 Sudeste 9 Sur 0 -- -- 42
2018-09-19 21:00:00 26.7 3 Sudeste 9 Sur 0 -- -- 37
2018-09-19 20:00:00 28.3 5 Sur 19 Sudeste 0 -- -- 35
2018-09-19 19:00:00 29.3 10 Sur 23 Sudoeste 0 -- -- 34
2018-09-19 18:00:00 30.3 9 Sur 19 Sur 0 -- -- 33
2018-09-19 17:00:00 30.8 4 Sudeste 13 Sur 0 -- -- 33
2018-09-19 16:00:00 30.2 5 Este 16 Sudeste 0 -- -- 33
2018-09-19 15:00:00 30.7 5 Sudeste 15 Sudeste 0 -- -- 34
2018-09-19 14:00:00 29.5 4 Sudoeste 12 Sudoeste 0 -- -- 38
2018-09-19 13:00:00 28.2 5 Sudeste 13 Sur 0 -- -- 42
2018-09-19 12:00:00 26.2 5 Sudeste 12 Nordeste 0 -- -- 47
2018-09-19 11:00:00 24.3 4 Sudeste 13 Sudeste 0 -- -- 53
2018-09-19 10:00:00 20.6 3 Sudeste 12 Sudeste 0 -- -- 69
2018-09-19 09:00:00 18.1 3 Sudeste 10 Este 0 -- -- 82
2018-09-19 08:00:00 17.3 3 Sudeste 14 Este 0 -- -- 84
2018-09-19 07:00:00 17.8 5 Sudeste 14 Este 0 -- -- 81
2018-09-19 06:00:00 18.6 3 Sudeste 12 Sudeste 0 -- -- 77
2018-09-19 05:00:00 18.9 0 Calma 6 Este 0 -- -- 76
2018-09-19 04:00:00 19.2 0 Calma 7 Nordeste 0 -- -- 76
2018-09-19 03:00:00 19.4 3 Sudeste 10 Sudeste 0 -- -- 75
2018-09-19 02:00:00 20.2 3 Sudeste 16 Sudeste 0 -- -- 71
2018-09-19 01:00:00 21.4 5 Sudeste 19 Este 0 -- -- 64
2018-09-19 00:00:00 23.2 6 Sudeste 18 Sudeste 0 -- -- 58
2018-09-18 23:00:00 24.4 0 Calma 4 Norte 0 -- -- 53
2018-09-18 22:00:00 24.9 2 Noroeste 9 Norte 0 -- -- 52
2018-09-18 21:00:00 25.8 2 Oeste 16 Oeste 0 -- -- 50
2018-09-18 20:00:00 27.1 6 Oeste 16 Oeste 0 -- -- 47
2018-09-18 19:00:00 28.3 4 Oeste 13 Sur 0 -- -- 41
2018-09-18 18:00:00 29.7 5 Oeste 13 Sur 0 -- -- 38
2018-09-18 17:00:00 30.1 5 Sudoeste 18 Sur 0 -- -- 37
2018-09-18 16:00:00 30.1 7 Sudoeste 15 Oeste 0 -- -- 38
2018-09-18 15:00:00 29 6 Oeste 12 Sudoeste 0 -- -- 41
2018-09-18 14:00:00 27.7 5 Norte 12 Sudoeste 0 -- -- 44
2018-09-18 13:00:00 26.3 4 Norte 10 Nordeste 0 -- -- 47
2018-09-18 12:00:00 24.4 2 Oeste 7 Noroeste 0 -- -- 57
2018-09-18 11:00:00 22.4 3 Noroeste 6 Sur 0 -- -- 66
2018-09-18 10:00:00 19.1 2 Sudeste 5 Sur 0 -- -- 81
2018-09-18 09:00:00 17.1 4 Sudeste 8 Sudeste 0 -- -- 88
2018-09-18 08:00:00 17.6 0 Calma 6 Este 0 -- -- 88
2018-09-18 07:00:00 17.7 3 Nordeste 6 Norte 0 -- -- 84
2018-09-18 06:00:00 18.2 0 Calma 5 Sur 0 -- -- 85
2018-09-18 05:00:00 18.6 2 Sur 9 Este 0 -- -- 84
2018-09-18 04:00:00 18.9 0 Calma 13 Este 0 -- -- 81
2018-09-18 03:00:00 19.6 4 Sudeste 12 Sudeste 0 -- -- 78
2018-09-18 02:00:00 20.3 4 Sudeste 12 Este 0 -- -- 78
2018-09-18 01:00:00 20.8 2 Sudeste 8 Este 0 -- -- 73
2018-09-18 00:00:00 21 3 Sur 12 Sur 0 -- -- 70
2018-09-17 23:00:00 21.5 4 Sur 16 Este 0 -- -- 68
2018-09-17 22:00:00 21.9 8 Sur 21 Sur 0 -- -- 64
2018-09-17 21:00:00 21.7 9 Sur 15 Sur 0 -- -- 65
2018-09-17 20:00:00 22.9 6 Sudoeste 23 Sudoeste 0 -- -- 62
2018-09-17 19:00:00 25.3 10 Sudoeste 45 Sur 0 -- -- 46
2018-09-17 18:00:00 29.7 12 Sudeste 27 Sur 0 -- -- 43
2018-09-17 17:00:00 30.4 5 Sur 17 Sur 0 -- -- 38
2018-09-17 16:00:00 30.4 6 Sur 15 Este 0 -- -- 39
2018-09-17 15:00:00 29.2 4 Este 17 Sudeste 0 -- -- 42
2018-09-17 14:00:00 28 5 Este 15 Este 0 -- -- 47
2018-09-17 13:00:00 27.4 5 Sudeste 18 Sudeste 0 -- -- 50
2018-09-17 12:00:00 25.9 5 Sudeste 22 Sudeste 0 -- -- 54
2018-09-17 11:00:00 23.4 6 Sudeste 22 Sudeste 0 -- -- 64
2018-09-17 10:00:00 20.7 11 Sudeste 21 Este 0 -- -- 72
2018-09-17 09:00:00 18.7 6 Sudeste 21 Sudeste 0 -- -- 76
2018-09-17 08:00:00 18.2 5 Sudeste 19 Sudeste 0 -- -- 74
2018-09-17 07:00:00 18.4 6 Sudeste 17 Sudeste 0 -- -- 72
2018-09-17 06:00:00 19.1 5 Sudeste 24 Este 0 -- -- 71
2018-09-17 05:00:00 19.8 6 Sudeste 21 Sudeste 0 -- -- 72
2018-09-17 04:00:00 20.3 5 Sudeste 22 Sudeste 0 -- -- 73
2018-09-17 03:00:00 20.9 6 Sudeste 20 Nordeste 0 -- -- 72
2018-09-17 02:00:00 21.8 5 Sudeste 15 Este 0 -- -- 60
2018-09-17 01:00:00 22.8 4 Este 10 Este 0 -- -- 48
2018-09-17 00:00:00 23.5 4 Sudeste 10 Este 0 -- -- 41
2018-09-16 23:00:00 24.2 2 Este 8 Este 0 -- -- 37
2018-09-16 22:00:00 25.4 3 Sudeste 10 Sudeste 0 -- -- 35
2018-09-16 21:00:00 26.7 3 Sudeste 9 Este 0 -- -- 33
2018-09-16 20:00:00 28.3 5 Sudeste 14 Sur 0 -- -- 30
2018-09-16 19:00:00 29.2 6 Sudeste 18 Sudeste 0 -- -- 28
2018-09-16 18:00:00 30.7 7 Sudeste 18 Este 0 -- -- 27
2018-09-16 17:00:00 30.7 6 Este 18 Nordeste 0 -- -- 28
2018-09-16 16:00:00 30.2 5 Sudeste 24 Sur 0 -- -- 31
2018-09-16 15:00:00 29.5 7 Sur 17 Sudeste 0 -- -- 36
2018-09-16 14:00:00 27.5 4 Sudeste 15 Nordeste 0 -- -- 42
2018-09-16 13:00:00 25.6 4 Este 13 Nordeste 0 -- -- 50
2018-09-16 12:00:00 23.4 4 Sur 14 Sur 0 -- -- 62
2018-09-16 11:00:00 20.2 6 Sur 18 Sur 0 -- -- 75
2018-09-16 10:00:00 18.5 2 Sudeste 10 Este 0 -- -- 81
2018-09-16 09:00:00 16.9 3 Este 13 Este 0 -- -- 87
2018-09-16 08:00:00 16.8 4 Este 14 Este 0 -- -- 89
2018-09-16 07:00:00 16.9 4 Sudeste 12 Nordeste 0 -- -- 87
2018-09-16 06:00:00 17.3 4 Sudeste 16 Este 0 -- -- 86
2018-09-16 05:00:00 17.9 5 Sudeste 14 Sur 0 -- -- 84
2018-09-16 04:00:00 18.3 4 Este 13 Sudeste 0 -- -- 82
2018-09-16 03:00:00 18.8 3 Este 18 Sudeste 0 -- -- 80
2018-09-16 02:00:00 19.5 6 Sudeste 19 Sudeste 0 -- -- 76
2018-09-16 01:00:00 20 3 Sudeste 13 Este 0 -- -- 74
2018-09-16 00:00:00 20.6 8 Sudeste 17 Sudeste 0 -- -- 70
2018-09-15 23:00:00 21.3 6 Sudeste 20 Este 0 -- -- 63
2018-09-15 22:00:00 22.3 5 Sudeste 16 Sudeste 0 -- -- 58
2018-09-15 21:00:00 23.1 6 Sudeste 19 Sudeste 0 -- -- 52
2018-09-15 20:00:00 24.5 9 Sudeste 24 Sudeste 0 -- -- 49
2018-09-15 19:00:00 26.1 10 Sudeste 28 Sudeste 0 -- -- 43
2018-09-15 18:00:00 27.5 9 Sudeste 30 Sur 0 -- -- 43
2018-09-15 17:00:00 28.6 9 Sudeste 28 Sudeste 0 -- -- 41
2018-09-15 16:00:00 29.2 9 Sudeste 26 Este 0 -- -- 39
2018-09-15 15:00:00 28 8 Sudeste 28 Sudeste 0 -- -- 43
2018-09-15 14:00:00 27.4 8 Sudeste 26 Sur 0 -- -- 46
2018-09-15 13:00:00 26.3 9 Sudeste 24 Sudeste 0 -- -- 50
2018-09-15 12:00:00 24.9 6 Sudeste 19 Sudeste 0 -- -- 57
2018-09-15 11:00:00 23.2 7 Sudeste 19 Sur 0 -- -- 65
2018-09-15 10:00:00 21.3 5 Sudeste 19 Este 0 -- -- 73
2018-09-15 09:00:00 19.9 6 Sudeste 18 Este 0 -- -- 78
2018-09-15 08:00:00 19.8 5 Este 16 Este 0 -- -- 78
2018-09-15 07:00:00 19.9 4 Este 17 Este 0 -- -- 76
2018-09-15 06:00:00 20.3 3 Sudeste 17 Este 0 -- -- 74
2018-09-15 05:00:00 20.9 4 Este 17 Nordeste 0 -- -- 76
2018-09-15 04:00:00 21.1 5 Sudeste 19 Este 0 -- -- 74
2018-09-15 03:00:00 21.2 3 Sudeste 13 Este 0 -- -- 63
2018-09-15 02:00:00 21.6 3 Sudeste 8 Este 0 -- -- 57
2018-09-15 01:00:00 22.1 0 Calma 11 Sur 0 -- -- 54
2018-09-15 00:00:00 23.3 3 Sur 12 Sur 0 -- -- 51
2018-09-14 23:00:00 24.4 5 Sur 16 Sur 0 -- -- 48
2018-09-14 22:00:00 25.8 5 Sudeste 13 Sudeste 0 -- -- 44
2018-09-14 21:00:00 27.1 4 Este 15 Sudeste 0 -- -- 39
2018-09-14 20:00:00 28.6 6 Sudeste 15 Nordeste 0 -- -- 37
2018-09-14 19:00:00 29.5 6 Sudeste 18 Sudeste 0 -- -- 37
2018-09-14 18:00:00 30.8 6 Sudeste 17 Nordeste 0 -- -- 31
2018-09-14 17:00:00 31.5 4 Nordeste 17 Sur 0 -- -- 32
2018-09-14 16:00:00 31.2 5 Sudeste 13 Este 0 -- -- 31
2018-09-14 15:00:00 30 3 Nordeste 12 Este 0 -- -- 35
2018-09-14 14:00:00 29.4 4 Sur 13 Sur 0 -- -- 40
2018-09-14 13:00:00 28.5 4 Sur 13 Sur 0 -- -- 45
2018-09-14 12:00:00 25.8 7 Sur 14 Sur 0 -- -- 55
2018-09-14 11:00:00 22.3 4 Sudeste 13 Sudeste 0 -- -- 70
2018-09-14 10:00:00 21.2 5 Sudeste 13 Este 0 -- -- 76
2018-09-14 09:00:00 18.7 3 Sudeste 14 Este 0 -- -- 87
2018-09-14 08:00:00 18.5 4 Sudeste 15 Sudeste 0 -- -- 86
2018-09-14 07:00:00 19 5 Sudeste 15 Este 0 -- -- 83
2018-09-14 06:00:00 19.2 5 Sudeste 15 Sudeste 0 -- -- 82
2018-09-14 05:00:00 19.7 6 Sudeste 21 Este 0 -- -- 82
2018-09-14 04:00:00 20.3 6 Sudeste 19 Sudeste 0 -- -- 80
2018-09-14 03:00:00 21.2 5 Sudeste 23 Este 0 -- -- 75
2018-09-14 02:00:00 22.2 7 Este 18 Este 0 -- -- 62
2018-09-14 01:00:00 22.3 0 Calma 3 Nordeste 0 -- -- 40
2018-09-14 00:00:00 23 0 Calma 6 Sudoeste 0 -- -- 39
2018-09-13 23:00:00 24.7 0 Calma 2 Nordeste 0 -- -- 36
2018-09-13 22:00:00 26.3 0 Calma 6 Norte 0 -- -- 32
2018-09-13 21:00:00 28.4 4 Norte 11 Noroeste 0 -- -- 29
2018-09-13 20:00:00 30 4 Noroeste 10 Noroeste 0 -- -- 27
2018-09-13 19:00:00 31.1 3 Norte 13 Oeste 0 -- -- 26
2018-09-13 18:00:00 32.1 3 Oeste 12 Norte 0 -- -- 25
2018-09-13 17:00:00 31.5 5 Norte 15 Norte 0 -- -- 26
2018-09-13 16:00:00 31.6 4 Norte 20 Sudoeste 0 -- -- 27
2018-09-13 15:00:00 31.5 4 Norte 10 Sudeste 0 -- -- 28
2018-09-13 14:00:00 31.6 3 Sudoeste 12 Norte 0 -- -- 29
2018-09-13 13:00:00 30 3 Oeste 10 Sudoeste 0 -- -- 35
2018-09-13 12:00:00 27.5 4 Sudoeste 12 Sur 0 -- -- 43
2018-09-13 11:00:00 24.5 5 Sudoeste 10 Sudoeste 0 -- -- 55
2018-09-13 10:00:00 20.9 3 Sur 8 Sur 0 -- -- 70
2018-09-13 09:00:00 18.5 0 Calma 9 Este 0 -- -- 81
2018-09-13 08:00:00 18.2 3 Sudeste 9 Sur 0 -- -- 82
2018-09-13 07:00:00 18.8 3 Sudeste 10 Sudeste 0 -- -- 81
2018-09-13 06:00:00 19.4 2 Sudeste 6 Sudeste 0 -- -- 76
2018-09-13 05:00:00 20 0 Calma 7 Sudeste 0 -- -- 74
2018-09-13 04:00:00 20.4 3 Sudeste 10 Sudeste 0 -- -- 70
2018-09-13 03:00:00 20.4 0 Calma 3 Norte 0 -- -- 56
2018-09-13 02:00:00 21.3 0 Calma 2 Nordeste 0 -- -- 56
2018-09-13 01:00:00 22.1 0 Calma 4 Nordeste 0 -- -- 51
2018-09-13 00:00:00 22.8 0 Calma 3 Oeste 0 -- -- 52
2018-09-12 23:00:00 24.1 0 Calma 4 Sudoeste 0 -- -- 49
2018-09-12 22:00:00 25.6 0 Calma 4 Nordeste 0 -- -- 44
2018-09-12 21:00:00 27.4 3 Nordeste 12 Noroeste 0 -- -- 39
2018-09-12 20:00:00 28.5 6 Norte 14 Norte 0 -- -- 36
2018-09-12 19:00:00 29.3 5 Norte 18 Norte 0 -- -- 34
2018-09-12 18:00:00 30.3 5 Norte 18 Norte 0 -- -- 32
2018-09-12 17:00:00 29.6 6 Norte 20 Noroeste 0 -- -- 35
2018-09-12 16:00:00 30.1 6 Norte 15 Nordeste 0 -- -- 38
2018-09-12 15:00:00 29.6 4 Oeste 13 Norte 0 -- -- 40
2018-09-12 14:00:00 28.6 4 Oeste 13 Oeste 0 -- -- 50
2018-09-12 13:00:00 26.6 4 Norte 13 Norte 0 -- -- 56
2018-09-12 12:00:00 25.1 4 Sudoeste 9 Sudoeste 0 -- -- 62
2018-09-12 11:00:00 23 4 Sur 12 Sur 0 -- -- 71
2018-09-12 10:00:00 20.1 5 Sudeste 14 Sudeste 0 -- -- 83
2018-09-12 09:00:00 18.6 5 Sudeste 13 Sudeste 0 -- -- 89
2018-09-12 08:00:00 18.1 4 Este 15 Sudeste 0 -- -- 90
2018-09-12 07:00:00 18.4 5 Sudeste 19 Sudeste 0 -- -- 88
2018-09-12 06:00:00 18.6 6 Sudeste 21 Nordeste 0 -- -- 88
2018-09-12 05:00:00 18.6 5 Sudeste 19 Este 0 -- -- 87
2018-09-12 04:00:00 18.7 7 Sudeste 22 Sudeste 0 -- -- 86
2018-09-12 03:00:00 19.2 5 Sudeste 24 Sudeste 0 -- -- 83
2018-09-12 02:00:00 19.8 7 Sudeste 22 Sudeste 0 -- -- 82
2018-09-12 01:00:00 20.1 7 Sudeste 23 Sur 0 -- -- 81
2018-09-12 00:00:00 20.6 6 Sudeste 21 Sudeste 0 -- -- 77
2018-09-11 23:00:00 21.7 8 Sudeste 26 Este 0 -- -- 75
2018-09-11 22:00:00 22.3 6 Sudeste 24 Sudeste 0 -- -- 73
2018-09-11 21:00:00 23.2 6 Sudeste 20 Nordeste 0 -- -- 66
2018-09-11 20:00:00 24.5 8 Sudeste 23 Sudeste 0 -- -- 60
2018-09-11 19:00:00 24.9 7 Sudeste 26 Sudeste 0 -- -- 60
2018-09-11 18:00:00 28 9 Sudeste 28 Sur 0 -- -- 48
2018-09-11 17:00:00 29 7 Sudeste 30 Este 0 -- -- 44
2018-09-11 16:00:00 28.3 10 Sudeste 34 Este 0 -- -- 46
2018-09-11 15:00:00 27.2 10 Sudeste 29 Sudeste 0 -- -- 50
2018-09-11 14:00:00 26.7 10 Sudeste 35 Sur 0 -- -- 50
2018-09-11 13:00:00 25.5 9 Sudeste 24 Sudeste 0 -- -- 54
2018-09-11 12:00:00 23.5 10 Sudeste 28 Este 0 -- -- 58
2018-09-11 11:00:00 21.5 9 Sudeste 23 Sur 0 -- -- 68
2018-09-11 10:00:00 18.5 7 Este 18 Este 0 -- -- 79
2018-09-11 09:00:00 17.3 6 Este 17 Este 0 -- -- 85
2018-09-11 08:00:00 17 5 Este 18 Este 0 -- -- 87
2018-09-11 07:00:00 16.9 6 Este 15 Nordeste 0 -- -- 86
2018-09-11 06:00:00 17 6 Nordeste 18 Este 0 -- -- 86
2018-09-11 05:00:00 17.3 5 Este 18 Este 0 -- -- 85
2018-09-11 04:00:00 17.7 5 Este 19 Sudeste 0 -- -- 83
2018-09-11 03:00:00 18.3 5 Sudeste 21 Nordeste 0 -- -- 80
2018-09-11 02:00:00 18.7 5 Sudeste 18 Sudeste 0 -- -- 78
2018-09-11 01:00:00 19.4 6 Sudeste 21 Sudeste 0 -- -- 74
2018-09-11 00:00:00 20.2 6 Sudeste 23 Sudeste 0 -- -- 69
2018-09-10 23:00:00 21.3 5 Este 19 Nordeste 0 -- -- 66
2018-09-10 22:00:00 22.4 4 Este 17 Este 0 -- -- 60
2018-09-10 21:00:00 23.8 6 Este 18 Este 0 -- -- 56
2018-09-10 20:00:00 24.9 7 Sudeste 20 Este 0 -- -- 52
2018-09-10 19:00:00 25.6 6 Sudeste 25 Este 0 -- -- 48
2018-09-10 18:00:00 26.7 7 Este 27 Sudeste 0 -- -- 48
2018-09-10 17:00:00 26.9 6 Este 21 Sur 0 -- -- 46
2018-09-10 16:00:00 27.1 7 Sudeste 25 Este 0 -- -- 47
2018-09-10 15:00:00 25.6 9 Sudeste 30 Este 0 -- -- 53
2018-09-10 14:00:00 24.6 8 Sudeste 23 Este 0 -- -- 55
2018-09-10 13:00:00 23.1 8 Sudeste 21 Sur 0 -- -- 59
2018-09-10 12:00:00 19.9 9 Sudeste 20 Sudeste 0 -- -- 75
2018-09-10 11:00:00 19.5 5 Este 13 Este 0 -- -- 70
2018-09-10 10:00:00 18.3 2 Sudeste 7 Sur 0 -- -- 75
2018-09-10 09:00:00 16.9 2 Este 8 Norte 0 -- -- 75
2018-09-10 08:00:00 15.7 2 Norte 9 Norte 0 -- -- 79
2018-09-10 07:00:00 15.8 2 Nordeste 11 Norte 0 -- -- 80
2018-09-10 06:00:00 16.6 0 Calma 9 Nordeste 0 -- -- 75
2018-09-10 05:00:00 17.4 4 Este 13 Sudeste 0 -- -- 72
2018-09-10 04:00:00 17 4 Nordeste 9 Oeste 0 -- -- 74
2018-09-10 03:00:00 17.5 5 Sudoeste 10 Sur 0 -- -- 72
2018-09-10 02:00:00 17.4 2 Sudoeste 14 Sur 0 -- -- 74
2018-09-10 01:00:00 17.6 5 Sudoeste 17 Oeste 0 -- -- 74
2018-09-10 00:00:00 18 5 Sur 27 Este 0.2 -- -- 74
2018-09-09 23:00:00 18.8 7 Este 26 Este 0.2 -- -- 72
2018-09-09 22:00:00 21.6 7 Nordeste 24 Nordeste 0 -- -- 52
2018-09-09 21:00:00 24.2 3 Noroeste 12 Norte 0 -- -- 45
2018-09-09 20:00:00 24.9 6 Norte 25 Norte 0 -- -- 44
2018-09-09 19:00:00 27 4 Sudeste 15 Sudeste 0 -- -- 40
2018-09-09 18:00:00 28.2 6 Sudeste 19 Este 0 -- -- 37
2018-09-09 17:00:00 29.3 7 Sudeste 23 Este 0 -- -- 33
2018-09-09 16:00:00 29.1 5 Sudeste 15 Nordeste 0 -- -- 36
2018-09-09 15:00:00 27.4 5 Nordeste 14 Sudeste 0 -- -- 41
2018-09-09 14:00:00 26.6 4 Nordeste 15 Este 0 -- -- 45
2018-09-09 13:00:00 25.6 5 Sudeste 17 Sur 0 -- -- 49
2018-09-09 12:00:00 23.6 4 Este 18 Sudeste 0 -- -- 58
2018-09-09 11:00:00 21 5 Nordeste 12 Nordeste 0 -- -- 64
2018-09-09 10:00:00 17.4 3 Norte 5 Norte 0 -- -- 74
2018-09-09 09:00:00 14.6 2 Norte 6 Nordeste 0 -- -- 80
2018-09-09 08:00:00 15 2 Este 6 Nordeste 0 -- -- 80
2018-09-09 07:00:00 15.2 3 Sur 7 Sur 0 -- -- 79
2018-09-09 06:00:00 15.5 3 Sudeste 10 Sudeste 0 -- -- 78
2018-09-09 05:00:00 16.5 0 Calma 4 Este 0 -- -- 80
2018-09-09 04:00:00 16.8 0 Calma 4 Norte 0 -- -- 79
2018-09-09 03:00:00 16.9 2 Norte 5 Nordeste 0 -- -- 77
2018-09-09 02:00:00 17.3 0 Calma 6 Sudoeste 0 -- -- 78
2018-09-09 01:00:00 18.3 0 Calma -- -- 0 -- -- 74
2018-09-09 00:00:00 18.9 0 Calma 5 Sudoeste 0 -- -- 71
2018-09-08 23:00:00 19.7 0 Calma 8 Oeste 0 -- -- 69
2018-09-08 22:00:00 20.7 2 Norte 5 Norte 0 -- -- 64
2018-09-08 21:00:00 21 0 Calma 6 Oeste 0 -- -- 64
2018-09-08 20:00:00 21.3 2 Sudoeste 11 Sudoeste 0 -- -- 64
2018-09-08 19:00:00 21.3 6 Oeste 17 Oeste 0 -- -- 65
2018-09-08 18:00:00 23.5 8 Sur 18 Sudeste 0 -- -- 50
2018-09-08 17:00:00 22.1 7 Sudoeste 31 Oeste 0 -- -- 60
2018-09-08 16:00:00 25.5 12 Sudoeste 32 Sudoeste 0 -- -- 54
2018-09-08 15:00:00 27 16 Sur 31 Sudeste 0 -- -- 36
2018-09-08 14:00:00 26.6 9 Sudeste 21 Este 0 -- -- 43
2018-09-08 13:00:00 26.5 9 Sudeste 23 Sudeste 0 -- -- 46
2018-09-08 12:00:00 24.9 9 Sudeste 21 Sudeste 0 -- -- 51
2018-09-08 11:00:00 21.4 6 Sudeste 26 Sur 0 -- -- 66
2018-09-08 10:00:00 18.9 9 Sudeste 30 Sudeste 0 -- -- 80
2018-09-08 09:00:00 18.2 8 Sudeste 27 Este 0 -- -- 84
2018-09-08 08:00:00 17.9 8 Sudeste 23 Este 0 -- -- 86
2018-09-08 07:00:00 18.4 7 Sudeste 25 Este 0 -- -- 84
2018-09-08 06:00:00 18.8 8 Sudeste 23 Este 0 -- -- 81
2018-09-08 05:00:00 18.9 7 Sudeste 22 Sudeste 0 -- -- 79
2018-09-08 04:00:00 19.1 8 Sudeste 26 Este 0 -- -- 78
2018-09-08 03:00:00 20 7 Sudeste 23 Sudeste 0 -- -- 73
2018-09-08 02:00:00 20.8 7 Sudeste 22 Sudeste 0 -- -- 67
2018-09-08 01:00:00 21.7 7 Sudeste 23 Sur 0 -- -- 66
2018-09-08 00:00:00 22.2 7 Sudeste 23 Este 0 -- -- 65
2018-09-07 23:00:00 22.8 6 Sudeste 23 Este 0 -- -- 59
2018-09-07 22:00:00 23.9 6 Sudeste 24 Sudeste 0 -- -- 50
2018-09-07 21:00:00 26.7 9 Sudeste 24 Sudeste 0 -- -- 42
2018-09-07 20:00:00 28.8 7 Sur 22 Sudoeste 0 -- -- 25
2018-09-07 19:00:00 29.9 8 Sur 23 Sur 0 -- -- 26
2018-09-07 18:00:00 30.6 6 Sur 22 Sur 0 -- -- 25
2018-09-07 17:00:00 29.8 3 Este 19 Este 0 -- -- 30
2018-09-07 16:00:00 30.4 5 Sur 19 Sur 0 -- -- 31
2018-09-07 15:00:00 29.4 6 Sudoeste 16 Sudeste 0 -- -- 32
2018-09-07 14:00:00 29.7 5 Sur 20 Este 0 -- -- 34
2018-09-07 13:00:00 27.7 8 Sur 26 Sudoeste 0 -- -- 42
2018-09-07 12:00:00 25.7 7 Sudeste 21 Sudeste 0 -- -- 51
2018-09-07 11:00:00 23.2 8 Sudeste 22 Sudeste 0 -- -- 63
2018-09-07 10:00:00 19.8 7 Sudeste 20 Este 0 -- -- 80
2018-09-07 09:00:00 17.9 6 Sudeste 23 Este 0 -- -- 88
2018-09-07 08:00:00 17.9 4 Este 17 Este 0 -- -- 87
2018-09-07 07:00:00 18.1 4 Sudeste 14 Este 0 -- -- 85
2018-09-07 06:00:00 18.3 5 Sudeste 16 Este 0 -- -- 82
2018-09-07 05:00:00 18.7 5 Sudeste 18 Este 0 -- -- 75
2018-09-07 04:00:00 19.4 5 Este 13 Nordeste 0 -- -- 67
2018-09-07 03:00:00 19.5 3 Nordeste 8 Nordeste 0 -- -- 52
2018-09-07 02:00:00 20.1 3 Nordeste 10 Nordeste 0 -- -- 51
2018-09-07 01:00:00 20.7 4 Norte 11 Nordeste 0 -- -- 49
2018-09-07 00:00:00 22.1 6 Nordeste 19 Nordeste 0 -- -- 45
2018-09-06 23:00:00 24 6 Nordeste 15 Nordeste 0 -- -- 39
2018-09-06 22:00:00 24.6 0 Calma 7 Sur 0 -- -- 37
2018-09-06 21:00:00 25.8 0 Calma 10 Sudoeste 0 -- -- 35
2018-09-06 20:00:00 27 5 Sudoeste 12 Sudoeste 0 -- -- 33
2018-09-06 19:00:00 27.9 5 Oeste 15 Sur 0 -- -- 32
2018-09-06 18:00:00 29.3 6 Sudoeste 16 Sur 0 -- -- 30
2018-09-06 17:00:00 28.5 4 Sudoeste 19 Sur 0 -- -- 32
2018-09-06 16:00:00 28.8 7 Sudoeste 17 Sur 0 -- -- 32
2018-09-06 15:00:00 27.6 7 Sudoeste 17 Oeste 0 -- -- 35
2018-09-06 14:00:00 27.2 7 Sudoeste 23 Sudoeste 0 -- -- 37
2018-09-06 13:00:00 26.2 7 Noroeste 22 Oeste 0 -- -- 39
2018-09-06 12:00:00 25.3 5 Oeste 15 Sudoeste 0 -- -- 41
2018-09-06 11:00:00 22.4 3 Oeste 9 Oeste 0 -- -- 49
2018-09-06 10:00:00 19.2 3 Sur 7 Sur 0 -- -- 58
2018-09-06 09:00:00 17.4 4 Sur 9 Sur 0 -- -- 63
2018-09-06 08:00:00 16.5 3 Sur 8 Sur 0 -- -- 65
2018-09-06 07:00:00 16.6 2 Sur 8 Sudoeste 0 -- -- 63
2018-09-06 06:00:00 16.9 3 Sudoeste 8 Sur 0 -- -- 61
2018-09-06 05:00:00 17.3 4 Sudoeste 8 Sudoeste 0 -- -- 58
2018-09-06 04:00:00 18 3 Sur 6 Sudoeste 0 -- -- 55
2018-09-06 03:00:00 19 3 Sur 4 Oeste 0 -- -- 51
2018-09-06 02:00:00 19.8 3 Sudoeste 5 Oeste 0 -- -- 50
2018-09-06 01:00:00 20.6 0 Calma 7 Norte 0 -- -- 47
2018-09-06 00:00:00 21.7 0 Calma 9 Noroeste 0 -- -- 44
2018-09-05 23:00:00 22.7 3 Noroeste 11 Oeste 0 -- -- 40
2018-09-05 22:00:00 23.8 3 Oeste 9 Oeste 0 -- -- 36
2018-09-05 21:00:00 25.4 4 Oeste 19 Oeste 0 -- -- 33
2018-09-05 20:00:00 26.8 6 Oeste 22 Oeste 0 -- -- 29
2018-09-05 19:00:00 28 7 Oeste 23 Oeste 0 -- -- 31
2018-09-05 18:00:00 29.6 9 Sudoeste 22 Sudoeste 0 -- -- 26
2018-09-05 17:00:00 29.5 11 Sudoeste 26 Sur 0 -- -- 30
2018-09-05 16:00:00 28.8 10 Sudoeste 26 Sudoeste 0 -- -- 35
2018-09-05 15:00:00 28.1 12 Sur 28 Sur 0 -- -- 35
2018-09-05 14:00:00 27.6 8 Sudoeste 26 Sur 0 -- -- 40
2018-09-05 13:00:00 26.2 9 Sudoeste 22 Sur 0 -- -- 44
2018-09-05 12:00:00 25.5 7 Sudoeste 17 Oeste 0 -- -- 45
2018-09-05 11:00:00 23.1 6 Sudoeste 15 Sudoeste 0 -- -- 51
2018-09-05 10:00:00 19.8 6 Sudoeste 12 Sur 0 -- -- 61
2018-09-05 09:00:00 16.9 5 Sur 9 Sur 0 -- -- 67
2018-09-05 08:00:00 16.1 3 Sur 10 Sur 0 -- -- 68
2018-09-05 07:00:00 16.6 2 Sudoeste 9 Sudoeste 0 -- -- 64
2018-09-05 06:00:00 17 3 Sudoeste 9 Oeste 0 -- -- 60
2018-09-05 05:00:00 17.5 5 Sur 13 Sur 0 -- -- 55
2018-09-05 04:00:00 18.7 6 Sudoeste 13 Sudoeste 0 -- -- 49
2018-09-05 03:00:00 19.4 3 Sudoeste 14 Sur 0 -- -- 46
2018-09-05 02:00:00 20 5 Sur 12 Sudoeste 0 -- -- 44
2018-09-05 01:00:00 21.1 5 Sur 14 Sudoeste 0 -- -- 40
2018-09-05 00:00:00 22.4 4 Sudoeste 11 Sudoeste 0 -- -- 38
2018-09-04 23:00:00 23.8 4 Sudoeste 13 Sudoeste 0 -- -- 35
2018-09-04 22:00:00 26 5 Sudoeste 13 Oeste 0 -- -- 30
2018-09-04 21:00:00 27.5 3 Sur 9 Oeste 0 -- -- 32
2018-09-04 20:00:00 28.9 4 Sudoeste 13 Noroeste 0 -- -- 30
2018-09-04 19:00:00 29.8 6 Sudoeste 18 Oeste 0 -- -- 30
2018-09-04 18:00:00 31.2 6 Oeste 26 Oeste 0 -- -- 27
2018-09-04 17:00:00 31.1 7 Sudoeste 26 Sudoeste 0 -- -- 28
2018-09-04 16:00:00 30.9 8 Sudoeste 24 Sudoeste 0 -- -- 27
2018-09-04 15:00:00 29.9 11 Sudoeste 28 Oeste 0 -- -- 30
2018-09-04 14:00:00 28.9 10 Sur 22 Sur 0 -- -- 34
2018-09-04 13:00:00 27.8 9 Sudoeste 24 Sur 0 -- -- 42
2018-09-04 12:00:00 26.2 10 Sur 23 Sur 0 -- -- 47
2018-09-04 11:00:00 24.5 9 Sur 21 Sur 0 -- -- 46
2018-09-04 10:00:00 21.3 11 Sur 22 Sudoeste 0 -- -- 55
2018-09-04 09:00:00 19.1 8 Sur 15 Sur 0 -- -- 60
2018-09-04 08:00:00 19.2 5 Sur 13 Sudoeste 0 -- -- 52
2018-09-04 07:00:00 20 6 Sudoeste 15 Sur 0 -- -- 49
2018-09-04 06:00:00 19.6 6 Sur 14 Sudoeste 0 -- -- 49
2018-09-04 05:00:00 19.3 5 Sur 9 Sur 0 -- -- 47
2018-09-04 04:00:00 20.2 4 Sur 9 Oeste 0 -- -- 45
2018-09-04 03:00:00 21.1 4 Sur 8 Sudoeste 0 -- -- 42
2018-09-04 02:00:00 21.5 3 Sur 10 Sudeste 0 -- -- 47
2018-09-04 01:00:00 22.3 3 Este 11 Sudeste 0 -- -- 57
2018-09-04 00:00:00 23.9 0 Calma 7 Sur 0 -- -- 33
2018-09-03 23:00:00 25.2 3 Sudoeste 16 Oeste 0 -- -- 30
2018-09-03 22:00:00 26.6 6 Sudoeste 14 Sudoeste 0 -- -- 29
2018-09-03 21:00:00 28.9 6 Sudoeste 19 Sur 0 -- -- 24
2018-09-03 20:00:00 31.1 11 Sur 20 Sur 0 -- -- 27
2018-09-03 19:00:00 31.8 10 Sur 25 Sur 0 -- -- 30
2018-09-03 18:00:00 33 8 Sur 24 Sur 0 -- -- 27
2018-09-03 17:00:00 33.2 9 Sudoeste 24 Oeste 0 -- -- 28
2018-09-03 16:00:00 30.9 10 Sudoeste 24 Sudoeste 0 -- -- 32
2018-09-03 15:00:00 31.3 8 Sudoeste 21 Noroeste 0 -- -- 31
2018-09-03 14:00:00 31.9 11 Sur 21 Sur 0 -- -- 33
2018-09-03 13:00:00 30.6 12 Sur 21 Sur 0 -- -- 38
2018-09-03 12:00:00 27.9 7 Sur 18 Sur 0 -- -- 47
2018-09-03 11:00:00 26.7 10 Sur 19 Sur 0 -- -- 51
2018-09-03 10:00:00 23.6 6 Sur 10 Sur 0 -- -- 58
2018-09-03 09:00:00 22.1 0 Calma 8 Sur 0 -- -- 59
2018-09-03 08:00:00 21.8 3 Sur 9 Sudoeste 0 -- -- 58
2018-09-03 07:00:00 22.9 6 Sur 11 Sudoeste 0 -- -- 52
2018-09-03 06:00:00 23.4 6 Sur 12 Sur 0 -- -- 50
2018-09-03 05:00:00 23.4 4 Sudeste 9 Sudeste 0 -- -- 52
2018-09-03 04:00:00 23.2 0 Calma 6 Sur 0 -- -- 55
2018-09-03 03:00:00 24.1 3 Sudoeste 13 Sur 0 -- -- 52
2018-09-03 02:00:00 24.7 5 Sudeste 14 Sudeste 0 -- -- 49
2018-09-03 01:00:00 25.7 6 Sur 14 Sudeste 0 -- -- 43
2018-09-03 00:00:00 27.4 4 Sudeste 12 Sudeste 0 -- -- 38
2018-09-02 23:00:00 28.7 4 Sudeste 27 Sudoeste 0 -- -- 35
2018-09-02 22:00:00 30.7 0 Calma 4 Sudeste 0 -- -- 28
2018-09-02 21:00:00 32.2 0 Calma 9 Sur 0 -- -- 26
2018-09-02 20:00:00 34.3 3 Este 10 Sur 0 -- -- 22
2018-09-02 19:00:00 35.3 2 Sudoeste 12 Sur 0 -- -- 22
2018-09-02 18:00:00 36.5 6 Oeste 17 Sudoeste 0 -- -- 21
2018-09-02 17:00:00 36.3 4 Norte 21 Sur 0 -- -- 24
2018-09-02 16:00:00 35.8 4 Sur 15 Noroeste 0 -- -- 26
2018-09-02 15:00:00 35 6 Oeste 15 Sudoeste 0 -- -- 27
2018-09-02 14:00:00 33.5 4 Oeste 15 Oeste 0 -- -- 32
2018-09-02 13:00:00 31.7 3 Sur 9 Sudeste 0 -- -- 37
2018-09-02 12:00:00 29.5 3 Sur 11 Sur 0 -- -- 42
2018-09-02 11:00:00 26.2 3 Sudeste 17 Sudeste 0 -- -- 53
2018-09-02 10:00:00 22.4 4 Sudeste 17 Sudeste 0 -- -- 66
2018-09-02 09:00:00 20.4 6 Sudeste 22 Sudeste 0 -- -- 73
2018-09-02 08:00:00 20.1 5 Sudeste 22 Este 0 -- -- 74
2018-09-02 07:00:00 20.4 7 Sudeste 25 Nordeste 0 -- -- 71
2018-09-02 06:00:00 21.1 7 Sudeste 26 Este 0 -- -- 69
2018-09-02 05:00:00 21.8 6 Sudeste 19 Sudeste 0 -- -- 68
2018-09-02 04:00:00 22.8 5 Sudeste 23 Sudeste 0 -- -- 64
2018-09-02 03:00:00 23.7 5 Sudeste 19 Sudeste 0 -- -- 60
2018-09-02 02:00:00 25.3 4 Sudeste 17 Este 0 -- -- 52
2018-09-02 01:00:00 26.4 3 Sudeste 11 Sur 0 -- -- 46
2018-09-02 00:00:00 27.6 3 Sudeste 10 Este 0 -- -- 41
2018-09-01 23:00:00 29 5 Sudeste 12 Sudeste 0 -- -- 36
2018-09-01 22:00:00 29.8 0 Calma 5 Nordeste 0 -- -- 31
2018-09-01 21:00:00 31.6 0 Calma 9 Nordeste 0 -- -- 29
2018-09-01 20:00:00 33.2 5 Nordeste 13 Nordeste 0 -- -- 26
2018-09-01 19:00:00 34.5 5 Nordeste 9 Sudoeste 0 -- -- 24
2018-09-01 18:00:00 35.3 3 Sur 13 Sur 0 -- -- 24
2018-09-01 17:00:00 35.2 4 Este 12 Nordeste 0 -- -- 24
2018-09-01 16:00:00 34.4 3 Oeste 19 Oeste 0 -- -- 29
2018-09-01 15:00:00 33.6 5 Sur 13 Sur 0 -- -- 33
2018-09-01 14:00:00 32 6 Sur 15 Sudeste 0 -- -- 40
2018-09-01 13:00:00 30 6 Sur 16 Este 0 -- -- 46
2018-09-01 12:00:00 26.3 5 Sudeste 19 Sudeste 0 -- -- 59
2018-09-01 11:00:00 24.3 6 Sudeste 22 Este 0 -- -- 66
2018-09-01 10:00:00 22.6 7 Sudeste 22 Este 0 -- -- 73
2018-09-01 09:00:00 20.6 6 Sudeste 25 Este 0 -- -- 80
2018-09-01 08:00:00 20 8 Sudeste 28 Este 0 -- -- 81
2018-09-01 07:00:00 20.4 6 Este 24 Sudeste 0 -- -- 79
2018-09-01 06:00:00 20.7 6 Sudeste 27 Este 0 -- -- 78
2018-09-01 05:00:00 21.2 6 Sudeste 22 Este 0 -- -- 78
2018-09-01 04:00:00 21.7 6 Sudeste 21 Este 0 -- -- 75
2018-09-01 03:00:00 22.4 8 Sudeste 28 Este 0 -- -- 71
2018-09-01 02:00:00 23.5 8 Sudeste 26 Este 0 -- -- 67
2018-09-01 01:00:00 25 7 Sudeste 23 Este 0 -- -- 64
2018-09-01 00:00:00 26.8 6 Sudeste 18 Este 0 -- -- 56
2018-08-31 23:00:00 28.1 0 Calma 6 Nordeste 0 -- -- 34
2018-08-31 22:00:00 29.3 2 Sudoeste 6 Sur 0 -- -- 34
2018-08-31 21:00:00 30.9 0 Calma 5 Oeste 0 -- -- 30
2018-08-31 20:00:00 32.5 3 Oeste 12 Oeste 0 -- -- 28
2018-08-31 19:00:00 33.3 3 Norte 10 Noroeste 0 -- -- 26
2018-08-31 18:00:00 34.5 4 Noroeste 15 Norte 0 -- -- 25
2018-08-31 17:00:00 34.6 5 Noroeste 17 Nordeste 0 -- -- 26
2018-08-31 16:00:00 34.2 3 Oeste 15 Este 0 -- -- 28
2018-08-31 15:00:00 33.4 4 Nordeste 13 Este 0 -- -- 32
2018-08-31 14:00:00 32.3 5 Sudeste 13 Este 0 -- -- 37
2018-08-31 13:00:00 30.5 4 Este 13 Sur 0 -- -- 41
2018-08-31 12:00:00 28.2 4 Sur 12 Sudeste 0 -- -- 49
2018-08-31 11:00:00 26.2 5 Sudeste 15 Sur 0 -- -- 56
2018-08-31 10:00:00 22.9 5 Sudeste 20 Sudeste 0 -- -- 74
2018-08-31 09:00:00 20.8 6 Sudeste 17 Sudeste 0 -- -- 83
2018-08-31 08:00:00 20.4 4 Sudeste 16 Este 0 -- -- 84
2018-08-31 07:00:00 20.7 4 Sudeste 15 Este 0 -- -- 83
2018-08-31 06:00:00 21.2 4 Sudeste 17 Sudeste 0 -- -- 82
2018-08-31 05:00:00 21.7 4 Sudeste 18 Sudeste 0 -- -- 78
2018-08-31 04:00:00 22.3 5 Sudeste 19 Este 0 -- -- 72
2018-08-31 03:00:00 23.4 5 Sudeste 14 Sudeste 0 -- -- 65
2018-08-31 02:00:00 24.1 4 Sudeste 15 Este 0 -- -- 61
2018-08-31 01:00:00 24.9 4 Sudeste 13 Nordeste 0 -- -- 55
2018-08-31 00:00:00 25.9 4 Sudeste 16 Sudeste 0 -- -- 49
2018-08-30 23:00:00 27 4 Sudeste 14 Sudeste 0 -- -- 44
2018-08-30 22:00:00 28.1 3 Sudeste 12 Nordeste 0 -- -- 38
2018-08-30 21:00:00 29.9 3 Sudeste 13 Este 0 -- -- 34
2018-08-30 20:00:00 31.1 6 Sudeste 16 Este 0 -- -- 32
2018-08-30 19:00:00 32.3 7 Este 18 Este 0 -- -- 30
2018-08-30 18:00:00 32.5 4 Este 15 Sur 0 -- -- 31
2018-08-30 17:00:00 32.2 5 Este 18 Sudeste 0 -- -- 31
2018-08-30 16:00:00 33.3 3 Norte 20 Sur 0 -- -- 30
2018-08-30 15:00:00 32.3 6 Sudeste 18 Sur 0 -- -- 33
2018-08-30 14:00:00 31.5 6 Sudeste 18 Sudeste 0 -- -- 35
2018-08-30 13:00:00 30.5 7 Sudeste 20 Sur 0 -- -- 39
2018-08-30 12:00:00 28.5 8 Sur 23 Sur 0 -- -- 44
2018-08-30 11:00:00 26 8 Sur 19 Este 0 -- -- 54
2018-08-30 10:00:00 23.1 6 Sudeste 20 Sudeste 0 -- -- 69
2018-08-30 09:00:00 20.9 6 Sudeste 18 Este 0 -- -- 80
2018-08-30 08:00:00 20.1 5 Sudeste 26 Sudeste 0 -- -- 83
2018-08-30 07:00:00 20.5 8 Sudeste 27 Sudeste 0 -- -- 80
2018-08-30 06:00:00 20.9 5 Sudeste 19 Este 0 -- -- 79
2018-08-30 05:00:00 21.2 5 Sudeste 21 Este 0 -- -- 76
2018-08-30 04:00:00 21.7 8 Sudeste 24 Este 0 -- -- 72
2018-08-30 03:00:00 22.6 8 Sudeste 27 Sudeste 0 -- -- 69
2018-08-30 02:00:00 23.9 4 Sudeste 15 Este 0 -- -- 63
2018-08-30 01:00:00 24.6 4 Sudeste 17 Sudeste 0 -- -- 61
2018-08-30 00:00:00 25.5 6 Sudeste 28 Nordeste 0 -- -- 56
2018-08-29 23:00:00 27.4 3 Norte 7 Norte 0 -- -- 31
2018-08-29 22:00:00 28.5 0 Calma 6 Norte 0 -- -- 30
2018-08-29 21:00:00 30.1 2 Norte 9 Noroeste 0 -- -- 27
2018-08-29 20:00:00 31.5 0 Calma 13 Sur 0 -- -- 25
2018-08-29 19:00:00 32.6 3 Noroeste 20 Sur 0 -- -- 24
2018-08-29 18:00:00 34.2 5 Sudoeste 14 Sudeste 0 -- -- 22
2018-08-29 17:00:00 34.2 4 Sudeste 14 Sur 0 -- -- 23
2018-08-29 16:00:00 33.7 5 Sur 12 Sudeste 0 -- -- 24
2018-08-29 15:00:00 32.2 5 Oeste 20 Sur 0 -- -- 27
2018-08-29 14:00:00 32 5 Oeste 15 Sudoeste 0 -- -- 28
2018-08-29 13:00:00 31.3 4 Noroeste 14 Noroeste 0 -- -- 29
2018-08-29 12:00:00 28.5 4 Norte 11 Noroeste 0 -- -- 33
2018-08-29 11:00:00 26.6 4 Sur 8 Sudoeste 0 -- -- 37
2018-08-29 10:00:00 22.9 4 Sur 9 Sur 0 -- -- 46
2018-08-29 09:00:00 21.1 3 Sur 10 Sur 0 -- -- 51
2018-08-29 08:00:00 21.1 2 Sur 8 Sur 0 -- -- 47
2018-08-29 07:00:00 21.5 0 Calma 5 Sudeste 0 -- -- 43
2018-08-29 06:00:00 22 0 Calma 5 Oeste 0 -- -- 43
2018-08-29 05:00:00 22.7 0 Calma 8 Oeste 0 -- -- 42
2018-08-29 04:00:00 23.5 0 Calma 9 Norte 0 -- -- 40
2018-08-29 03:00:00 24.1 4 Norte 9 Nordeste 0 -- -- 37
2018-08-29 02:00:00 24.9 2 Noroeste 10 Norte 0 -- -- 35
2018-08-29 01:00:00 26 4 Norte 10 Norte 0 -- -- 31
2018-08-29 00:00:00 27.2 3 Norte 17 Norte 0 -- -- 31
2018-08-28 23:00:00 28.7 3 Oeste 15 Oeste 0 -- -- 34
2018-08-28 22:00:00 30.4 5 Oeste 16 Oeste 0 -- -- 31
2018-08-28 21:00:00 31.9 6 Oeste 27 Oeste 0 -- -- 29
2018-08-28 20:00:00 33.4 10 Oeste 26 Sudoeste 0 -- -- 27
2018-08-28 19:00:00 34.7 8 Sudoeste 21 Sur 0 -- -- 26
2018-08-28 18:00:00 36 9 Sudoeste 27 Oeste 0 -- -- 24
2018-08-28 17:00:00 36.3 8 Sudoeste 29 Sudoeste 0 -- -- 24
2018-08-28 16:00:00 35.7 14 Sur 28 Sur 0 -- -- 24
2018-08-28 15:00:00 34.6 13 Sur 28 Sudoeste 0 -- -- 26
2018-08-28 14:00:00 33.7 14 Sur 26 Sur 0 -- -- 28
2018-08-28 13:00:00 32.2 11 Sur 26 Sur 0 -- -- 32
2018-08-28 12:00:00 30 8 Sur 19 Sudeste 0 -- -- 39
2018-08-28 11:00:00 26.4 6 Sudeste 18 Sudeste 0 -- -- 56
2018-08-28 10:00:00 22.5 5 Sudeste 18 Sudeste 0 -- -- 73
2018-08-28 09:00:00 22.5 5 Sudeste 15 Este 0 -- -- 70
2018-08-28 08:00:00 22.6 2 Este 11 Este 0 -- -- 66
2018-08-28 07:00:00 23.1 2 Sudoeste 15 Nordeste 0 -- -- 62
2018-08-28 06:00:00 22.9 3 Este 13 Este 0 -- -- 66
2018-08-28 05:00:00 23.3 5 Sudeste 18 Sudeste 0 -- -- 66
2018-08-28 04:00:00 24.1 5 Sudeste 14 Este 0 -- -- 61
2018-08-28 03:00:00 25.1 5 Sur 19 Sudeste 0 -- -- 55
2018-08-28 02:00:00 26.2 6 Sudeste 15 Sudeste 0 -- -- 48
2018-08-28 01:00:00 27.2 4 Sudeste 17 Sudeste 0 -- -- 45
2018-08-28 00:00:00 28.4 8 Sudeste 24 Sudeste 0 -- -- 44
2018-08-27 23:00:00 29.5 8 Sudeste 24 Sudeste 0 -- -- 38
2018-08-27 22:00:00 31.5 3 Sudeste 8 Sudeste 0 -- -- 26
2018-08-27 21:00:00 32.7 0 Calma 6 Sur 0 -- -- 22
2018-08-27 20:00:00 34.7 4 Sur 9 Sur 0 -- -- 19
2018-08-27 19:00:00 35.9 0 Calma 8 Sur 0 -- -- 18
2018-08-27 18:00:00 37.7 4 Oeste 13 Sur 0 -- -- 16
2018-08-27 17:00:00 36.8 4 Norte 18 Oeste 0 -- -- 18
2018-08-27 16:00:00 37.2 5 Sudoeste 17 Sudoeste 0 -- -- 20
2018-08-27 15:00:00 36.1 7 Sur 16 Sur 0 -- -- 22
2018-08-27 14:00:00 34.6 4 Sudeste 15 Sur 0 -- -- 26
2018-08-27 13:00:00 32.1 5 Sudeste 16 Este 0 -- -- 34
2018-08-27 12:00:00 29.3 7 Sudeste 18 Sudeste 0 -- -- 48
2018-08-27 11:00:00 25.7 7 Sudeste 21 Este 0 -- -- 61
2018-08-27 10:00:00 22.6 6 Sudeste 18 Sudeste 0 -- -- 77
2018-08-27 09:00:00 19.4 7 Sudeste 19 Este 0 -- -- 90
2018-08-27 08:00:00 19.5 7 Sudeste 21 Sudeste 0 -- -- 84
2018-08-27 07:00:00 20.4 4 Sudeste 18 Este 0 -- -- 80
2018-08-27 06:00:00 20.9 4 Sudeste 17 Este 0 -- -- 74
2018-08-27 05:00:00 21.4 3 Sudeste 9 Nordeste 0 -- -- 59
2018-08-27 04:00:00 21.7 0 Calma 7 Este 0 -- -- 38
2018-08-27 03:00:00 21.5 0 Calma 8 Sur 0 -- -- 37
2018-08-27 02:00:00 23.1 4 Sur 9 Sur 0 -- -- 33
2018-08-27 01:00:00 24.4 0 Calma 3 Noroeste 0 -- -- 29
2018-08-27 00:00:00 26.3 0 Calma 8 Norte 0 -- -- 26
2018-08-26 23:00:00 26.9 3 Nordeste 9 Nordeste 0 -- -- 26
2018-08-26 22:00:00 29.3 3 Norte 13 Norte 0 -- -- 24
2018-08-26 21:00:00 31.4 5 Norte 13 Norte 0 -- -- 23
2018-08-26 20:00:00 33.1 5 Noroeste 17 Oeste 0 -- -- 21
2018-08-26 19:00:00 34.6 7 Oeste 24 Oeste 0 -- -- 18
2018-08-26 18:00:00 35.7 9 Sudoeste 27 Sudoeste 0 -- -- 17
2018-08-26 17:00:00 35.8 8 Oeste 21 Noroeste 0 -- -- 19
2018-08-26 16:00:00 35.3 5 Sudoeste 21 Sudoeste 0 -- -- 19
2018-08-26 15:00:00 34.2 6 Oeste 17 Oeste 0 -- -- 20
2018-08-26 14:00:00 33.4 4 Oeste 14 Oeste 0 -- -- 23
2018-08-26 13:00:00 30.8 4 Sudeste 14 Sur 0 -- -- 33
2018-08-26 12:00:00 28.5 4 Sur 17 Este 0 -- -- 46
2018-08-26 11:00:00 25.6 5 Sudeste 14 Este 0 -- -- 60
2018-08-26 10:00:00 22.2 4 Sudeste 14 Este 0 -- -- 77
2018-08-26 09:00:00 19.7 3 Norte 11 Sudeste 0 -- -- 82
2018-08-26 08:00:00 19.6 2 Nordeste 15 Este 0 -- -- 85
2018-08-26 07:00:00 20 3 Nordeste 9 Este 0 -- -- 86
2018-08-26 06:00:00 20.2 3 Sudeste 19 Este 0 -- -- 85
2018-08-26 05:00:00 20.4 5 Sudeste 21 Este 0 -- -- 82
2018-08-26 04:00:00 21 5 Sudeste 25 Este 0 -- -- 78
2018-08-26 03:00:00 22 6 Sudeste 19 Este 0 -- -- 69
2018-08-26 02:00:00 22.6 3 Norte 13 Norte 0 -- -- 25
2018-08-26 01:00:00 24.1 6 Norte 14 Norte 0 -- -- 23
2018-08-26 00:00:00 25.1 4 Noroeste 13 Noroeste 0 -- -- 21
2018-08-25 23:00:00 27.3 3 Noroeste 15 Noroeste 0 -- -- 19
2018-08-25 22:00:00 28.6 8 Norte 14 Norte 0 -- -- 19
2018-08-25 21:00:00 30.8 3 Norte 18 Noroeste 0 -- -- 20
2018-08-25 20:00:00 32.8 6 Noroeste 20 Norte 0 -- -- 18
2018-08-25 19:00:00 34.2 8 Noroeste 24 Noroeste 0 -- -- 17
2018-08-25 18:00:00 35.4 9 Noroeste 27 Oeste 0 -- -- 17
2018-08-25 17:00:00 35.7 9 Noroeste 32 Oeste 0 -- -- 16
2018-08-25 16:00:00 35.3 5 Norte 29 Oeste 0 -- -- 18
2018-08-25 15:00:00 34.1 6 Noroeste 18 Sur 0 -- -- 20
2018-08-25 14:00:00 33.5 5 Oeste 17 Sudoeste 0 -- -- 21
2018-08-25 13:00:00 32 7 Sur 13 Sur 0 -- -- 22
2018-08-25 12:00:00 29.5 5 Sur 13 Sudoeste 0 -- -- 41
2018-08-25 11:00:00 26.1 5 Sudeste 15 Sudeste 0 -- -- 50
2018-08-25 10:00:00 23.3 6 Sudeste 14 Este 0 -- -- 61
2018-08-25 09:00:00 19.1 0 Calma 9 Norte 0 -- -- 50
2018-08-25 08:00:00 18.3 2 Noroeste 4 Noroeste 0 -- -- 44
2018-08-25 07:00:00 18.9 0 Calma 8 Sur 0 -- -- 42
2018-08-25 06:00:00 20.3 0 Calma 6 Oeste 0 -- -- 39
2018-08-25 05:00:00 20 0 Calma 4 Oeste 0 -- -- 37
2018-08-25 04:00:00 21.5 2 Noroeste 6 Nordeste 0 -- -- 33
2018-08-25 03:00:00 22.4 0 Calma 6 Nordeste 0 -- -- 31
2018-08-25 02:00:00 23.2 0 Calma 12 Norte 0 -- -- 29
2018-08-25 01:00:00 23.9 6 Norte 14 Norte 0 -- -- 28
2018-08-25 00:00:00 25.9 6 Norte 13 Norte 0 -- -- 25